createdAt,value
2018-12-01T00:00:54.253Z,87.6
2018-12-01T00:02:06.291Z,87.8
2018-12-01T00:03:19.746Z,88.1
2018-12-01T00:04:30.758Z,87.4
2018-12-01T00:05:42.873Z,87.4
2018-12-01T00:06:55.076Z,87.3
2018-12-01T00:08:07.345Z,88.1
2018-12-01T00:09:19.528Z,87.8
2018-12-01T00:10:31.651Z,87.8
2018-12-01T00:11:43.942Z,87.8
2018-12-01T00:12:56.049Z,87.6
2018-12-01T00:14:08.238Z,87.8
2018-12-01T00:15:20.528Z,87.5
2018-12-01T00:16:32.640Z,88.1
2018-12-01T00:17:44.897Z,88.4
2018-12-01T00:18:57.830Z,87.9
2018-12-01T00:20:09.222Z,87.7
2018-12-01T00:21:21.406Z,87.6
2018-12-01T00:22:33.791Z,87.9
2018-12-01T00:23:45.981Z,88.2
2018-12-01T00:24:58.160Z,87.9
2018-12-01T00:26:10.277Z,88.1
2018-12-01T00:27:22.545Z,88
2018-12-01T00:28:34.643Z,88
2018-12-01T00:29:46.956Z,87.7
2018-12-01T00:30:58.970Z,88.1
2018-12-01T00:32:11.339Z,88.2
2018-12-01T00:33:23.366Z,88.2
2018-12-01T00:34:35.563Z,88
2018-12-01T00:35:47.920Z,87.9
2018-12-01T00:37:00.113Z,88.4
2018-12-01T00:38:12.223Z,88.3
2018-12-01T00:39:24.417Z,88.3
2018-12-01T00:40:36.537Z,88.3
2018-12-01T00:41:48.739Z,88.2
2018-12-01T00:43:00.929Z,88
2018-12-01T00:44:13.286Z,88
2018-12-01T00:45:25.411Z,88.3
2018-12-01T00:46:37.618Z,88.3
2018-12-01T00:47:49.880Z,88.2
2018-12-01T00:49:02.042Z,88.3
2018-12-01T00:50:14.098Z,88.3
2018-12-01T00:51:26.452Z,88.4
2018-12-01T00:52:38.490Z,88.3
2018-12-01T00:53:50.761Z,88.2
2018-12-01T00:55:02.878Z,88.1
2018-12-01T00:56:15.083Z,88.1
2018-12-01T00:57:27.364Z,88.2
2018-12-01T00:58:39.557Z,88.1
2018-12-01T00:59:51.820Z,88.3
2018-12-01T01:01:03.853Z,88
2018-12-01T01:02:16.059Z,87.7
2018-12-01T01:03:28.250Z,88.2
2018-12-01T01:04:40.518Z,88.1
2018-12-01T01:05:52.805Z,88.3
2018-12-01T01:07:04.907Z,88.2
2018-12-01T01:08:17.101Z,88
2018-12-01T01:09:29.227Z,87.8
2018-12-01T01:10:41.492Z,88
2018-12-01T01:11:53.816Z,88.4
2018-12-01T01:13:06.031Z,88.3
2018-12-01T01:14:18.076Z,88.5
2018-12-01T01:15:30.398Z,88.3
2018-12-01T01:16:42.402Z,88.1
2018-12-01T01:17:54.590Z,88.2
2018-12-01T01:19:06.793Z,88.4
2018-12-01T01:20:19.083Z,88.2
2018-12-01T01:21:31.179Z,88
2018-12-01T01:22:43.549Z,88
2018-12-01T01:23:55.783Z,88.3
2018-12-01T01:25:07.839Z,88.3
2018-12-01T01:26:20.045Z,88.3
2018-12-01T01:27:32.241Z,88.5
2018-12-01T01:28:44.353Z,88.3
2018-12-01T01:29:56.622Z,88.1
2018-12-01T01:31:08.825Z,88.5
2018-12-01T01:32:21.030Z,88.3
2018-12-01T01:33:35.781Z,88.3
2018-12-01T01:34:45.510Z,88.3
2018-12-01T01:35:57.688Z,88
2018-12-01T01:37:09.791Z,88.5
2018-12-01T01:38:21.927Z,88.3
2018-12-01T01:39:34.208Z,88.3
2018-12-01T01:40:46.344Z,88.5
2018-12-01T01:41:58.602Z,88.7
2018-12-01T01:43:10.736Z,88.8
2018-12-01T01:44:22.902Z,88.7
2018-12-01T01:45:35.127Z,88.7
2018-12-01T01:46:47.380Z,88.8
2018-12-01T01:47:59.584Z,88.9
2018-12-01T01:49:11.907Z,88.7
2018-12-01T01:50:23.878Z,88.9
2018-12-01T01:51:36.073Z,88.9
2018-12-01T01:52:48.346Z,88.7
2018-12-01T01:54:00.461Z,88.9
2018-12-01T01:55:12.667Z,88.8
2018-12-01T01:56:25.011Z,88.8
2018-12-01T01:57:37.055Z,88.8
2018-12-01T01:58:50.016Z,88.2
2018-12-01T02:00:01.613Z,88.5
2018-12-01T02:01:13.703Z,88.3
2018-12-01T02:02:25.915Z,88.5
2018-12-01T02:03:38.102Z,88.1
2018-12-01T02:04:50.298Z,88.1
2018-12-01T02:06:02.419Z,88.5
2018-12-01T02:07:14.618Z,88.8
2018-12-01T02:08:26.830Z,88.5
2018-12-01T02:09:39.022Z,88.5
2018-12-01T02:10:51.293Z,88.7
2018-12-01T02:12:03.565Z,88.5
2018-12-01T02:13:15.662Z,88.8
2018-12-01T02:14:28.625Z,88.7
2018-12-01T02:15:40.053Z,88.8
2018-12-01T02:16:52.184Z,88.7
2018-12-01T02:18:04.469Z,88.5
2018-12-01T02:19:16.567Z,88.5
2018-12-01T02:20:28.835Z,88.5
2018-12-01T02:21:41.145Z,88.7
2018-12-01T02:22:53.239Z,88.5
2018-12-01T02:24:05.516Z,88.5
2018-12-01T02:25:17.640Z,88.5
2018-12-01T02:26:29.819Z,88.5
2018-12-01T02:27:42.052Z,88.5
2018-12-01T02:28:54.132Z,88.7
2018-12-01T02:30:06.412Z,88.8
2018-12-01T02:31:18.613Z,89.2
2018-12-01T02:32:30.901Z,88.9
2018-12-01T02:33:42.914Z,88.8
2018-12-01T02:34:55.274Z,88.5
2018-12-01T02:36:07.399Z,89.1
2018-12-01T02:37:19.566Z,88.9
2018-12-01T02:38:31.764Z,89
2018-12-01T02:39:44.068Z,89.1
2018-12-01T02:40:56.082Z,89
2018-12-01T02:42:08.369Z,89.1
2018-12-01T02:43:20.556Z,89.1
2018-12-01T02:44:32.765Z,89.3
2018-12-01T02:45:44.992Z,89.1
2018-12-01T02:46:57.120Z,89.1
2018-12-01T02:48:09.420Z,89.2
2018-12-01T02:49:21.537Z,89.2
2018-12-01T02:50:33.743Z,89.2
2018-12-01T02:51:45.932Z,88.9
2018-12-01T02:52:58.192Z,88.9
2018-12-01T02:54:10.335Z,89.2
2018-12-01T02:55:22.539Z,88.9
2018-12-01T02:56:34.726Z,89.2
2018-12-01T02:57:46.888Z,89.3
2018-12-01T02:58:59.126Z,89.3
2018-12-01T03:00:11.315Z,89.6
2018-12-01T03:01:23.546Z,89.5
2018-12-01T03:02:35.666Z,89.7
2018-12-01T03:03:47.794Z,89.7
2018-12-01T03:05:00.068Z,89.8
2018-12-01T03:06:12.223Z,89.7
2018-12-01T03:07:24.392Z,89.3
2018-12-01T03:08:36.746Z,89.3
2018-12-01T03:09:48.771Z,89.2
2018-12-01T03:11:00.989Z,89.5
2018-12-01T03:12:13.327Z,89.5
2018-12-01T03:13:25.433Z,89.5
2018-12-01T03:14:37.625Z,89.8
2018-12-01T03:15:49.907Z,89.9
2018-12-01T03:17:01.948Z,89.6
2018-12-01T03:18:14.217Z,89.7
2018-12-01T03:19:26.343Z,89.6
2018-12-01T03:20:38.531Z,89.7
2018-12-01T03:21:51.444Z,89.7
2018-12-01T03:23:05.871Z,89.7
2018-12-01T03:24:15.210Z,89.6
2018-12-01T03:25:27.371Z,89.6
2018-12-01T03:26:39.511Z,89.8
2018-12-01T03:27:51.803Z,89.8
2018-12-01T03:29:03.978Z,89.8
2018-12-01T03:30:16.330Z,90
2018-12-01T03:31:28.392Z,89.9
2018-12-01T03:32:40.492Z,89.6
2018-12-01T03:33:52.752Z,89.8
2018-12-01T03:35:04.883Z,89.2
2018-12-01T03:36:17.250Z,89.7
2018-12-01T03:37:29.435Z,90
2018-12-01T03:38:41.464Z,89.8
2018-12-01T03:39:53.754Z,89.8
2018-12-01T03:41:05.957Z,89.9
2018-12-01T03:42:18.215Z,90
2018-12-01T03:43:30.252Z,90.1
2018-12-01T03:44:42.640Z,89.9
2018-12-01T03:45:54.709Z,89.8
2018-12-01T03:47:06.933Z,89.9
2018-12-01T03:48:19.994Z,89.7
2018-12-01T03:49:31.340Z,89.5
2018-12-01T03:50:43.496Z,89.6
2018-12-01T03:51:55.820Z,89.8
2018-12-01T03:53:07.889Z,90
2018-12-01T03:54:20.060Z,90.1
2018-12-01T03:55:32.218Z,89.9
2018-12-01T03:56:44.395Z,89.8
2018-12-01T03:57:56.663Z,89.8
2018-12-01T03:59:08.885Z,90
2018-12-01T04:00:21.162Z,89.8
2018-12-01T04:01:33.178Z,89.8
2018-12-01T04:02:45.378Z,90
2018-12-01T04:03:57.639Z,90
2018-12-01T04:05:09.761Z,90
2018-12-01T04:06:22.040Z,90.2
2018-12-01T04:07:34.308Z,90.3
2018-12-01T04:08:46.428Z,90.3
2018-12-01T04:09:58.610Z,90
2018-12-01T04:11:10.829Z,90.2
2018-12-01T04:12:23.155Z,90
2018-12-01T04:13:35.378Z,89.8
2018-12-01T04:14:47.403Z,90.2
2018-12-01T04:15:59.518Z,90.2
2018-12-01T04:17:11.795Z,90.3
2018-12-01T04:18:24.018Z,90.4
2018-12-01T04:19:36.090Z,90.4
2018-12-01T04:20:48.374Z,90
2018-12-01T04:22:00.552Z,90
2018-12-01T04:23:12.679Z,90
2018-12-01T04:24:24.956Z,90.2
2018-12-01T04:25:37.150Z,90
2018-12-01T04:26:49.335Z,90.2
2018-12-01T04:28:01.598Z,90.2
2018-12-01T04:29:13.644Z,90.3
2018-12-01T04:30:25.963Z,90.2
2018-12-01T04:31:38.105Z,90.5
2018-12-01T04:32:50.404Z,90.4
2018-12-01T04:34:02.482Z,90.5
2018-12-01T04:35:14.792Z,90.5
2018-12-01T04:36:26.970Z,90.7
2018-12-01T04:37:39.108Z,90.6
2018-12-01T04:38:51.201Z,90.5
2018-12-01T04:40:03.390Z,90.5
2018-12-01T04:41:15.576Z,90.3
2018-12-01T04:42:27.869Z,90.6
2018-12-01T04:43:39.969Z,90.7
2018-12-01T04:44:52.332Z,90.5
2018-12-01T04:46:04.359Z,90.6
2018-12-01T04:47:16.559Z,90.7
2018-12-01T04:48:28.843Z,90.8
2018-12-01T04:49:41.048Z,90.7
2018-12-01T04:50:53.215Z,90.9
2018-12-01T04:52:05.448Z,90.7
2018-12-01T04:53:17.522Z,90.7
2018-12-01T04:54:29.791Z,90.8
2018-12-01T04:55:41.928Z,90.7
2018-12-01T04:56:54.195Z,90.7
2018-12-01T04:58:06.322Z,90.6
2018-12-01T04:59:18.573Z,90.5
2018-12-01T05:00:30.770Z,90.8
2018-12-01T05:01:42.955Z,90.8
2018-12-01T05:02:55.145Z,90.7
2018-12-01T05:04:07.354Z,90.7
2018-12-01T05:05:19.534Z,90.6
2018-12-01T05:06:31.644Z,90.6
2018-12-01T05:07:43.842Z,90.5
2018-12-01T05:08:56.114Z,90.4
2018-12-01T05:10:08.331Z,90.3
2018-12-01T05:11:20.590Z,90.3
2018-12-01T05:12:32.752Z,90.2
2018-12-01T05:13:44.973Z,90.1
2018-12-01T05:14:57.019Z,90.1
2018-12-01T05:16:09.199Z,90
2018-12-01T05:17:21.461Z,90.2
2018-12-01T05:18:33.751Z,90.1
2018-12-01T05:19:45.864Z,89.9
2018-12-01T05:20:58.069Z,89.9
2018-12-01T05:22:10.168Z,90
2018-12-01T05:23:22.454Z,89.5
2018-12-01T05:24:34.649Z,89.6
2018-12-01T05:25:46.910Z,89.8
2018-12-01T05:26:58.952Z,89.9
2018-12-01T05:28:11.142Z,89.9
2018-12-01T05:29:23.331Z,89.8
2018-12-01T05:30:35.613Z,90
2018-12-01T05:31:47.834Z,89.8
2018-12-01T05:33:00.078Z,89.9
2018-12-01T05:34:12.113Z,89.6
2018-12-01T05:35:24.377Z,89.9
2018-12-01T05:36:36.591Z,89.8
2018-12-01T05:37:48.685Z,89.7
2018-12-01T05:39:00.965Z,89.7
2018-12-01T05:40:13.296Z,89.7
2018-12-01T05:41:25.274Z,89.6
2018-12-01T05:42:37.544Z,89.7
2018-12-01T05:43:49.727Z,89.8
2018-12-01T05:45:01.867Z,89.8
2018-12-01T05:46:14.068Z,89.8
2018-12-01T05:47:26.405Z,89.9
2018-12-01T05:48:38.541Z,89.8
2018-12-01T05:49:50.684Z,89.7
2018-12-01T05:51:02.900Z,89.8
2018-12-01T05:52:15.015Z,89.8
2018-12-01T05:53:27.303Z,89.7
2018-12-01T05:54:39.613Z,89.8
2018-12-01T05:55:51.609Z,89.8
2018-12-01T05:57:03.895Z,89.7
2018-12-01T05:58:16.016Z,89.7
2018-12-01T05:59:28.259Z,89.6
2018-12-01T06:00:40.485Z,89.9
2018-12-01T06:01:52.566Z,89.9
2018-12-01T06:03:04.755Z,90
2018-12-01T06:04:16.954Z,89.9
2018-12-01T06:05:29.141Z,90.2
2018-12-01T06:06:41.468Z,89.9
2018-12-01T06:07:53.608Z,89.9
2018-12-01T06:09:05.744Z,90
2018-12-01T06:10:17.991Z,90.2
2018-12-01T06:11:30.207Z,90.1
2018-12-01T06:12:42.492Z,90.2
2018-12-01T06:13:54.669Z,90.2
2018-12-01T06:15:06.699Z,90.1
2018-12-01T06:16:18.992Z,90.3
2018-12-01T06:17:31.203Z,90.1
2018-12-01T06:18:43.377Z,90.3
2018-12-01T06:19:55.477Z,90.2
2018-12-01T06:21:07.820Z,90.3
2018-12-01T06:22:19.860Z,90.3
2018-12-01T06:23:32.220Z,90.3
2018-12-01T06:24:44.418Z,90.2
2018-12-01T06:25:56.533Z,90.5
2018-12-01T06:27:08.722Z,90.3
2018-12-01T06:28:20.998Z,90.5
2018-12-01T06:29:33.092Z,90.8
2018-12-01T06:30:45.343Z,90.7
2018-12-01T06:31:57.574Z,90.8
2018-12-01T06:33:09.683Z,90.9
2018-12-01T06:34:21.877Z,91
2018-12-01T06:35:34.171Z,90.9
2018-12-01T06:36:46.387Z,91
2018-12-01T06:37:58.470Z,90.8
2018-12-01T06:39:10.811Z,91.2
2018-12-01T06:40:22.852Z,91.2
2018-12-01T06:41:35.037Z,91.1
2018-12-01T06:42:47.256Z,91
2018-12-01T06:43:59.360Z,90.9
2018-12-01T06:45:11.745Z,91.1
2018-12-01T06:46:23.743Z,91.3
2018-12-01T06:47:36.108Z,91.4
2018-12-01T06:48:48.311Z,91.4
2018-12-01T06:50:00.451Z,91.3
2018-12-01T06:51:12.606Z,91
2018-12-01T06:52:24.803Z,90.9
2018-12-01T06:53:36.996Z,90.7
2018-12-01T06:54:49.254Z,90.8
2018-12-01T06:56:01.369Z,91.2
2018-12-01T06:57:13.538Z,91.3
2018-12-01T06:58:25.716Z,91.3
2018-12-01T06:59:37.962Z,91.3
2018-12-01T07:00:50.152Z,91.2
2018-12-01T07:02:02.347Z,91.5
2018-12-01T07:03:14.531Z,91.4
2018-12-01T07:04:26.839Z,91.5
2018-12-01T07:05:39.000Z,91.2
2018-12-01T07:06:51.170Z,91.2
2018-12-01T07:08:03.229Z,91.3
2018-12-01T07:09:15.496Z,90.9
2018-12-01T07:10:27.611Z,91.5
2018-12-01T07:11:39.984Z,91.3
2018-12-01T07:12:52.277Z,91.3
2018-12-01T07:14:04.369Z,91.4
2018-12-01T07:15:16.547Z,91.7
2018-12-01T07:16:28.702Z,91.6
2018-12-01T07:17:40.895Z,91.6
2018-12-01T07:18:53.096Z,91.7
2018-12-01T07:20:05.169Z,91.4
2018-12-01T07:21:17.422Z,91.4
2018-12-01T07:22:29.541Z,91.5
2018-12-01T07:23:41.940Z,91.6
2018-12-01T07:24:54.035Z,91.4
2018-12-01T07:26:06.139Z,91.6
2018-12-01T07:27:18.346Z,91.7
2018-12-01T07:28:30.567Z,91.4
2018-12-01T07:29:42.738Z,91.4
2018-12-01T07:30:54.989Z,91.3
2018-12-01T07:32:07.105Z,91.3
2018-12-01T07:33:19.398Z,91.1
2018-12-01T07:34:31.482Z,91.2
2018-12-01T07:35:43.857Z,91.2
2018-12-01T07:36:56.046Z,91.1
2018-12-01T07:38:08.256Z,91.1
2018-12-01T07:39:20.268Z,91.3
2018-12-01T07:40:32.525Z,91.1
2018-12-01T07:41:44.661Z,91.1
2018-12-01T07:42:57.005Z,90.7
2018-12-01T07:44:09.039Z,90.6
2018-12-01T07:45:21.351Z,90.4
2018-12-01T07:46:33.499Z,90.4
2018-12-01T07:47:45.626Z,90.6
2018-12-01T07:48:57.936Z,90.6
2018-12-01T07:50:10.103Z,90.8
2018-12-01T07:51:22.222Z,90.7
2018-12-01T07:52:34.517Z,90.6
2018-12-01T07:53:46.665Z,90.6
2018-12-01T07:54:58.949Z,90.7
2018-12-01T07:56:11.057Z,90.9
2018-12-01T07:57:23.340Z,90.9
2018-12-01T07:58:35.360Z,90.8
2018-12-01T07:59:47.619Z,90.8
2018-12-01T08:00:59.915Z,90.5
2018-12-01T08:02:12.003Z,90.7
2018-12-01T08:03:24.209Z,90.5
2018-12-01T08:04:36.516Z,90.8
2018-12-01T08:05:49.643Z,90.7
2018-12-01T08:07:00.722Z,90.3
2018-12-01T08:08:12.910Z,90.7
2018-12-01T08:09:25.188Z,90.6
2018-12-01T08:10:37.393Z,90.6
2018-12-01T08:11:49.703Z,90.7
2018-12-01T08:13:01.862Z,90.6
2018-12-01T08:14:14.033Z,90.7
2018-12-01T08:15:26.160Z,90.7
2018-12-01T08:16:38.339Z,90.6
2018-12-01T08:17:50.538Z,90.3
2018-12-01T08:19:02.794Z,90.3
2018-12-01T08:20:14.848Z,90.4
2018-12-01T08:21:27.191Z,90.5
2018-12-01T08:22:39.333Z,90.2
2018-12-01T08:23:51.533Z,90.2
2018-12-01T08:25:03.722Z,90.2
2018-12-01T08:26:15.893Z,90.3
2018-12-01T08:27:28.093Z,90.2
2018-12-01T08:28:40.372Z,90
2018-12-01T08:29:52.405Z,90
2018-12-01T08:31:04.601Z,90
2018-12-01T08:32:16.861Z,90
2018-12-01T08:33:29.062Z,89.8
2018-12-01T08:34:41.253Z,89.9
2018-12-01T08:35:53.380Z,89.8
2018-12-01T08:37:05.735Z,89.6
2018-12-01T08:38:17.840Z,89.7
2018-12-01T08:39:30.042Z,89.8
2018-12-01T08:40:42.302Z,89.6
2018-12-01T08:41:54.428Z,89.8
2018-12-01T08:43:06.610Z,89.7
2018-12-01T08:44:18.799Z,89.8
2018-12-01T08:45:31.087Z,89.7
2018-12-01T08:46:43.193Z,89.6
2018-12-01T08:47:55.384Z,89.6
2018-12-01T08:49:07.590Z,89.7
2018-12-01T08:50:19.835Z,89.3
2018-12-01T08:51:31.954Z,89.3
2018-12-01T08:52:44.203Z,89.2
2018-12-01T08:53:56.347Z,89
2018-12-01T08:55:08.557Z,88.8
2018-12-01T08:56:20.754Z,89
2018-12-01T08:57:32.861Z,89
2018-12-01T08:58:45.068Z,89
2018-12-01T08:59:57.339Z,88.8
2018-12-01T09:01:09.618Z,88.7
2018-12-01T09:02:21.643Z,88.7
2018-12-01T09:03:33.989Z,88.6
2018-12-01T09:04:46.100Z,88.6
2018-12-01T09:05:58.654Z,88.4
2018-12-01T09:07:10.412Z,88.5
2018-12-01T09:08:22.692Z,88.3
2018-12-01T09:09:34.963Z,88
2018-12-01T09:10:46.987Z,88
2018-12-01T09:11:59.253Z,87.9
2018-12-01T09:13:11.472Z,87.6
2018-12-01T09:14:23.733Z,87.6
2018-12-01T09:15:35.846Z,87.4
2018-12-01T09:16:47.963Z,87.5
2018-12-01T09:18:00.155Z,87.3
2018-12-01T09:19:12.488Z,87.6
2018-12-01T09:20:24.621Z,87.4
2018-12-01T09:21:36.734Z,87.4
2018-12-01T09:22:49.003Z,87.3
2018-12-01T09:24:01.184Z,87.4
2018-12-01T09:25:13.410Z,87.1
2018-12-01T09:26:25.558Z,87.3
2018-12-01T09:27:37.803Z,87.3
2018-12-01T09:28:49.961Z,87.4
2018-12-01T09:30:02.104Z,87.3
2018-12-01T09:31:14.456Z,87.4
2018-12-01T09:32:26.626Z,87.2
2018-12-01T09:33:38.787Z,87.2
2018-12-01T09:34:50.867Z,87
2018-12-01T09:36:03.057Z,87.1
2018-12-01T09:37:15.374Z,87.1
2018-12-01T09:38:27.742Z,86.9
2018-12-01T09:39:39.653Z,86.7
2018-12-01T09:40:52.008Z,86.7
2018-12-01T09:42:04.103Z,86.5
2018-12-01T09:43:16.228Z,86.2
2018-12-01T09:44:28.491Z,86.2
2018-12-01T09:45:40.772Z,86.7
2018-12-01T09:46:52.801Z,86.3
2018-12-01T09:48:05.195Z,86.5
2018-12-01T09:49:17.280Z,86.5
2018-12-01T09:50:29.561Z,85.9
2018-12-01T09:51:41.582Z,85.8
2018-12-01T09:52:53.874Z,85.8
2018-12-01T09:54:05.983Z,85.9
2018-12-01T09:55:18.169Z,85.5
2018-12-01T09:56:30.423Z,85.5
2018-12-01T09:57:42.542Z,85.8
2018-12-01T09:58:54.738Z,85.4
2018-12-01T10:00:06.932Z,85.2
2018-12-01T10:01:19.259Z,85.2
2018-12-01T10:02:31.533Z,84.7
2018-12-01T10:03:43.606Z,84.4
2018-12-01T10:04:55.800Z,84.5
2018-12-01T10:06:07.991Z,84.4
2018-12-01T10:07:20.102Z,84
2018-12-01T10:08:32.390Z,83.8
2018-12-01T10:09:44.680Z,83.6
2018-12-01T10:10:56.894Z,83.7
2018-12-01T10:12:08.885Z,83.7
2018-12-01T10:14:33.374Z,83.5
2018-12-01T10:15:45.715Z,84
2018-12-01T10:16:57.741Z,83.6
2018-12-01T10:18:09.853Z,83.9
2018-12-01T10:19:22.118Z,83.5
2018-12-01T10:20:34.301Z,83.4
2018-12-01T10:21:46.562Z,83.3
2018-12-01T10:22:58.613Z,83.2
2018-12-01T10:24:10.884Z,83.2
2018-12-01T10:25:23.101Z,83.3
2018-12-01T10:26:35.293Z,83.1
2018-12-01T10:27:47.474Z,83.1
2018-12-01T10:28:59.761Z,83
2018-12-01T10:30:11.927Z,82.9
2018-12-01T10:31:23.976Z,82.8
2018-12-01T10:32:36.248Z,82.7
2018-12-01T10:33:48.363Z,82.8
2018-12-01T10:35:00.629Z,82.1
2018-12-01T10:36:12.916Z,82.5
2018-12-01T10:37:25.130Z,82.7
2018-12-01T10:38:37.196Z,82.9
2018-12-01T10:39:49.413Z,83
2018-12-01T10:41:01.512Z,82.8
2018-12-01T10:42:13.819Z,82.9
2018-12-01T10:43:26.064Z,82.4
2018-12-01T10:44:38.107Z,82.5
2018-12-01T10:45:50.388Z,82.3
2018-12-01T10:47:02.488Z,81.9
2018-12-01T10:48:14.756Z,82
2018-12-01T10:49:27.055Z,82.1
2018-12-01T10:50:39.142Z,82
2018-12-01T10:51:51.271Z,81.9
2018-12-01T10:53:03.539Z,81.6
2018-12-01T10:54:15.655Z,81.4
2018-12-01T10:55:27.852Z,80.9
2018-12-01T10:56:40.265Z,80.3
2018-12-01T10:57:52.402Z,80.8
2018-12-01T10:59:04.433Z,80.6
2018-12-01T11:00:16.692Z,80.6
2018-12-01T11:01:28.913Z,80.7
2018-12-01T11:02:41.090Z,80.5
2018-12-01T11:03:53.200Z,80.1
2018-12-01T11:05:05.537Z,79.6
2018-12-01T11:06:17.590Z,79.6
2018-12-01T11:07:29.777Z,79.7
2018-12-01T11:08:41.971Z,79.4
2018-12-01T11:09:54.260Z,79.4
2018-12-01T11:11:06.376Z,79.6
2018-12-01T11:12:18.581Z,79.3
2018-12-01T11:13:30.844Z,79
2018-12-01T11:14:42.946Z,79.4
2018-12-01T11:15:55.157Z,79.6
2018-12-01T11:17:07.430Z,79.1
2018-12-01T11:18:19.531Z,78.6
2018-12-01T11:19:31.897Z,78.5
2018-12-01T11:20:43.995Z,78.6
2018-12-01T11:21:56.189Z,77.6
2018-12-01T11:23:08.309Z,77
2018-12-01T11:24:20.661Z,76.8
2018-12-01T11:25:32.793Z,77.4
2018-12-01T11:26:44.878Z,77.8
2018-12-01T11:27:57.173Z,77.3
2018-12-01T11:29:09.294Z,76.6
2018-12-01T11:30:21.539Z,76.4
2018-12-01T11:31:33.856Z,77.2
2018-12-01T11:32:45.861Z,77.1
2018-12-01T11:33:58.129Z,76.6
2018-12-01T11:35:10.236Z,77.4
2018-12-01T11:36:22.513Z,77.3
2018-12-01T11:37:34.786Z,77.1
2018-12-01T11:38:46.917Z,77.1
2018-12-01T11:39:59.080Z,77.7
2018-12-01T11:41:11.420Z,77.3
2018-12-01T11:42:23.479Z,77
2018-12-01T11:43:35.671Z,76.5
2018-12-01T11:44:47.782Z,77.3
2018-12-01T11:46:00.159Z,77.3
2018-12-01T11:47:12.251Z,77.1
2018-12-01T11:48:24.373Z,76.7
2018-12-01T11:49:36.654Z,76.2
2018-12-01T11:50:48.924Z,76.6
2018-12-01T11:52:00.958Z,76.5
2018-12-01T11:53:13.233Z,76.4
2018-12-01T11:54:25.414Z,76.3
2018-12-01T11:55:37.518Z,75.9
2018-12-01T11:56:49.725Z,75.9
2018-12-01T11:58:02.003Z,75.9
2018-12-01T11:59:14.108Z,76.1
2018-12-01T12:00:26.386Z,76.3
2018-12-01T12:01:39.361Z,75.6
2018-12-01T12:02:50.779Z,76.4
2018-12-01T12:04:02.977Z,75.3
2018-12-01T12:05:15.077Z,75.4
2018-12-01T12:06:27.290Z,74.5
2018-12-01T12:07:39.574Z,75.4
2018-12-01T12:08:51.737Z,75.4
2018-12-01T12:10:03.937Z,74.6
2018-12-01T12:11:16.059Z,74.3
2018-12-01T12:12:28.266Z,75.2
2018-12-01T12:13:40.767Z,74.2
2018-12-01T12:14:52.697Z,75.4
2018-12-01T12:16:04.818Z,74.9
2018-12-01T12:17:17.183Z,75.8
2018-12-01T12:18:29.209Z,76
2018-12-01T12:19:41.511Z,75
2018-12-01T12:20:53.674Z,75.5
2018-12-01T12:22:05.866Z,75.5
2018-12-01T12:23:18.062Z,75.2
2018-12-01T12:24:30.172Z,74.1
2018-12-01T12:25:42.545Z,74.2
2018-12-01T12:26:54.559Z,73.3
2018-12-01T12:28:06.770Z,73.5
2018-12-01T12:29:18.952Z,73.2
2018-12-01T12:30:31.351Z,71.8
2018-12-01T12:31:43.412Z,72.7
2018-12-01T12:32:55.548Z,71.8
2018-12-01T12:34:07.804Z,71.2
2018-12-01T12:35:19.988Z,71
2018-12-01T12:36:32.181Z,70.2
2018-12-01T12:37:44.495Z,70.2
2018-12-01T12:38:56.755Z,70.4
2018-12-01T12:40:08.694Z,70.5
2018-12-01T12:41:20.886Z,70.8
2018-12-01T12:42:33.147Z,70.5
2018-12-01T12:43:45.342Z,70.5
2018-12-01T12:44:57.811Z,70
2018-12-01T12:46:09.653Z,70
2018-12-01T12:47:21.957Z,69.6
2018-12-01T12:48:34.051Z,69.5
2018-12-01T12:49:46.336Z,69.6
2018-12-01T12:50:58.449Z,70.8
2018-12-01T12:52:10.783Z,69.1
2018-12-01T12:53:22.830Z,68.1
2018-12-01T12:54:35.082Z,69.4
2018-12-01T12:55:47.276Z,69.7
2018-12-01T12:56:59.420Z,70.4
2018-12-01T12:58:11.742Z,69.9
2018-12-01T12:59:23.915Z,70.1
2018-12-01T13:00:36.099Z,69.9
2018-12-01T13:01:48.345Z,69.9
2018-12-01T13:03:00.378Z,70.3
2018-12-01T13:04:12.568Z,70.8
2018-12-01T13:05:24.859Z,69.5
2018-12-01T13:06:37.048Z,70.5
2018-12-01T13:07:49.150Z,70.3
2018-12-01T13:09:01.407Z,70.2
2018-12-01T13:10:13.599Z,70.9
2018-12-01T13:11:25.721Z,70.8
2018-12-01T13:12:37.916Z,70.3
2018-12-01T13:13:50.230Z,70.1
2018-12-01T13:15:02.305Z,69.9
2018-12-01T13:16:14.565Z,70.7
2018-12-01T13:17:26.896Z,71
2018-12-01T13:18:38.920Z,71.7
2018-12-01T13:19:51.079Z,71
2018-12-01T13:21:03.435Z,71.1
2018-12-01T13:22:15.651Z,71.1
2018-12-01T13:23:27.668Z,69.7
2018-12-01T13:24:39.923Z,71.5
2018-12-01T13:25:52.048Z,71.2
2018-12-01T13:27:04.242Z,71.5
2018-12-01T13:28:16.448Z,70.8
2018-12-01T13:29:28.808Z,71.6
2018-12-01T13:30:41.416Z,71.6
2018-12-01T13:31:53.104Z,71.6
2018-12-01T13:33:05.226Z,72.2
2018-12-01T13:34:17.575Z,71.1
2018-12-01T13:35:29.676Z,71.4
2018-12-01T13:36:41.945Z,71
2018-12-01T13:37:54.163Z,72
2018-12-01T13:39:06.246Z,71.3
2018-12-01T13:40:18.383Z,72.3
2018-12-01T13:41:30.657Z,71.8
2018-12-01T13:42:42.835Z,71.9
2018-12-01T13:43:54.949Z,72.3
2018-12-01T13:45:07.147Z,72.3
2018-12-01T13:46:19.525Z,71.9
2018-12-01T13:47:31.604Z,72.2
2018-12-01T13:48:43.730Z,71.8
2018-12-01T13:49:56.101Z,72.3
2018-12-01T13:51:08.212Z,71.5
2018-12-01T13:52:21.805Z,71.4
2018-12-01T13:53:32.776Z,73.4
2018-12-01T13:54:44.705Z,72.8
2018-12-01T13:55:56.903Z,73.2
2018-12-01T13:57:09.106Z,72.8
2018-12-01T13:58:21.474Z,72
2018-12-01T13:59:33.566Z,72.8
2018-12-01T14:00:45.687Z,72.8
2018-12-01T14:01:57.966Z,73.8
2018-12-01T14:03:10.259Z,73.6
2018-12-01T14:04:22.353Z,74.1
2018-12-01T14:05:34.590Z,73
2018-12-01T14:06:46.718Z,73.8
2018-12-01T14:07:58.920Z,74.2
2018-12-01T14:09:11.051Z,73.7
2018-12-01T14:10:23.308Z,73.7
2018-12-01T14:11:35.503Z,74
2018-12-01T14:12:47.794Z,74.2
2018-12-01T14:14:00.027Z,73.8
2018-12-01T14:15:12.160Z,74.7
2018-12-01T14:16:24.339Z,74.4
2018-12-01T14:17:36.407Z,74.8
2018-12-01T14:18:48.673Z,73.5
2018-12-01T14:20:00.967Z,74.5
2018-12-01T14:21:13.065Z,74.5
2018-12-01T14:22:25.363Z,74
2018-12-01T14:23:37.559Z,74.3
2018-12-01T14:24:49.741Z,74.4
2018-12-01T14:26:01.894Z,73.7
2018-12-01T14:27:14.133Z,74.2
2018-12-01T14:28:26.240Z,73.3
2018-12-01T14:29:38.419Z,74.2
2018-12-01T14:30:50.643Z,72.8
2018-12-01T14:32:02.940Z,74.7
2018-12-01T14:33:14.955Z,75.1
2018-12-01T14:34:27.212Z,75
2018-12-01T14:35:39.340Z,75.5
2018-12-01T14:36:51.600Z,75.2
2018-12-01T14:38:03.893Z,74.9
2018-12-01T14:39:16.104Z,75.2
2018-12-01T14:40:28.299Z,75.1
2018-12-01T14:41:40.487Z,74.3
2018-12-01T14:42:52.599Z,75.7
2018-12-01T14:44:04.800Z,76.1
2018-12-01T14:45:16.969Z,76
2018-12-01T14:46:29.164Z,74.5
2018-12-01T14:47:41.303Z,74.8
2018-12-01T14:48:53.674Z,74.9
2018-12-01T14:50:05.773Z,75.9
2018-12-01T14:51:17.943Z,76
2018-12-01T14:52:30.072Z,75.7
2018-12-01T14:53:42.336Z,75.8
2018-12-01T14:54:54.466Z,75.5
2018-12-01T14:56:06.683Z,76.1
2018-12-01T14:57:18.864Z,76.1
2018-12-01T14:58:31.053Z,76.2
2018-12-01T14:59:43.284Z,75.9
2018-12-01T15:00:55.656Z,76.5
2018-12-01T15:02:07.799Z,76.2
2018-12-01T15:03:20.018Z,76.5
2018-12-01T15:04:32.112Z,76.8
2018-12-01T15:05:44.292Z,77
2018-12-01T15:06:56.494Z,78
2018-12-01T15:08:08.693Z,78.2
2018-12-01T15:09:20.957Z,78.6
2018-12-01T15:10:33.105Z,79
2018-12-01T15:11:45.191Z,79.8
2018-12-01T15:12:57.478Z,80
2018-12-01T15:14:09.678Z,79.9
2018-12-01T15:15:21.783Z,80.8
2018-12-01T15:16:34.058Z,82
2018-12-01T15:17:46.320Z,82.5
2018-12-01T15:18:58.439Z,83.4
2018-12-01T15:20:10.661Z,83.7
2018-12-01T15:21:22.757Z,84.2
2018-12-01T15:22:35.024Z,84.9
2018-12-01T15:23:47.147Z,84.9
2018-12-01T15:24:59.410Z,85.3
2018-12-01T15:26:11.635Z,86.1
2018-12-01T15:27:23.805Z,86
2018-12-01T15:28:35.931Z,86.8
2018-12-01T15:29:48.244Z,86.8
2018-12-01T15:31:00.407Z,87.5
2018-12-01T15:32:12.557Z,88
2018-12-01T15:33:24.783Z,88.4
2018-12-01T15:34:36.981Z,88.8
2018-12-01T15:35:49.173Z,89.3
2018-12-01T15:37:01.403Z,89.7
2018-12-01T15:38:13.593Z,90
2018-12-01T15:39:25.799Z,90.3
2018-12-01T15:40:37.954Z,90.7
2018-12-01T15:41:50.080Z,91
2018-12-01T15:43:02.269Z,90.9
2018-12-01T15:44:14.541Z,91.3
2018-12-01T15:45:26.709Z,91.2
2018-12-01T15:46:38.846Z,91.4
2018-12-01T15:47:51.136Z,91.7
2018-12-01T15:49:03.413Z,91.8
2018-12-01T15:50:15.539Z,92
2018-12-01T15:51:27.634Z,92.1
2018-12-01T15:52:39.845Z,92.2
2018-12-01T15:53:52.164Z,92.2
2018-12-01T15:55:04.326Z,92.3
2018-12-01T15:56:16.492Z,92.4
2018-12-01T15:57:28.694Z,92.5
2018-12-01T15:58:40.930Z,92.7
2018-12-01T15:59:53.074Z,93
2018-12-01T16:01:05.347Z,93
2018-12-01T16:02:17.488Z,93
2018-12-01T16:03:29.660Z,93.2
2018-12-01T16:04:41.803Z,93
2018-12-01T16:05:54.057Z,93.2
2018-12-01T16:07:06.246Z,93
2018-12-01T16:08:18.372Z,93.2
2018-12-01T16:09:30.620Z,93.4